createdAt,value
2018-08-04T00:01:12.745Z,101358.91
2018-08-04T00:03:41.121Z,101358.73
2018-08-04T00:06:08.407Z,101354.73
2018-08-04T00:08:35.552Z,101354.26
2018-08-04T00:11:02.687Z,101357.05
2018-08-04T00:13:29.978Z,101348.08
2018-08-04T00:15:57.486Z,101339.89
2018-08-04T00:18:25.013Z,101345.07
2018-08-04T00:20:53.335Z,101340.28
2018-08-04T00:23:22.029Z,101339.16
2018-08-04T00:25:49.785Z,101335.88
2018-08-04T00:28:16.935Z,101338.16
2018-08-04T00:30:44.104Z,101327.75
2018-08-04T00:33:12.768Z,101332.72
2018-08-04T00:35:40.021Z,101325.67
2018-08-04T00:38:07.283Z,101321.05
2018-08-04T00:40:34.791Z,101318.46
2018-08-04T00:43:02.068Z,101314.82
2018-08-04T00:45:29.511Z,101321.20
2018-08-04T00:47:57.089Z,101317.45
2018-08-04T00:50:24.953Z,101321.45
2018-08-04T00:52:52.851Z,101320.50
2018-08-04T00:55:21.098Z,101318.30
2018-08-04T00:57:48.314Z,101321.61
2018-08-04T01:00:15.445Z,101320.72
2018-08-04T01:02:42.790Z,101319.84
2018-08-04T01:05:09.920Z,101320.68
2018-08-04T01:07:37.091Z,101314.58
2018-08-04T01:10:04.839Z,101312.03
2018-08-04T01:12:32.504Z,101308.19
2018-08-04T01:15:00.024Z,101305.64
2018-08-04T01:17:27.322Z,101306.16
2018-08-04T01:19:54.960Z,101306.87
2018-08-04T01:22:22.413Z,101305.80
2018-08-04T01:24:49.975Z,101305.05
2018-08-04T01:27:17.871Z,101304.58
2018-08-04T01:29:46.050Z,101299.49
2018-08-04T01:32:14.460Z,101303.42
2018-08-04T01:34:41.617Z,101300.05
2018-08-04T01:37:08.760Z,101296.59
2018-08-04T01:39:36.027Z,101301.05
2018-08-04T01:42:03.204Z,101298.92
2018-08-04T01:44:30.352Z,101302.66
2018-08-04T01:46:57.647Z,101301.73
2018-08-04T01:49:25.104Z,101302.16
2018-08-04T01:51:52.765Z,101295.71
2018-08-04T01:54:20.338Z,101296.02
2018-08-04T01:56:48.192Z,101298.27
2018-08-04T01:59:16.192Z,101299.67
2018-08-04T02:01:43.574Z,101291.69
2018-08-04T02:04:15.261Z,101291.71
2018-08-04T02:06:45.829Z,101288.91
2018-08-04T02:09:13.217Z,101291.81
2018-08-04T02:11:46.399Z,101294.20
2018-08-04T02:14:13.913Z,101290.34
2018-08-04T02:16:41.107Z,101289.87
2018-08-04T02:19:08.411Z,101289.33
2018-08-04T02:21:35.594Z,101288.93
2018-08-04T02:24:02.741Z,101289.87
2018-08-04T02:26:30.443Z,101279.99
2018-08-04T02:28:58.053Z,101278.09
2018-08-04T02:31:25.594Z,101279.84
2018-08-04T02:33:53.535Z,101280.64
2018-08-04T02:36:21.495Z,101279.92
2018-08-04T02:38:48.688Z,101274.45
2018-08-04T02:41:15.900Z,101274.42
2018-08-04T02:43:43.067Z,101276.30
2018-08-04T02:46:10.193Z,101271.61
2018-08-04T02:48:37.345Z,101275.22
2018-08-04T02:51:04.691Z,101270.42
2018-08-04T02:53:32.088Z,101269.02
2018-08-04T02:55:59.884Z,101273.77
2018-08-04T02:58:27.313Z,101269.48
2018-08-04T03:00:54.855Z,101272.83
2018-08-04T03:03:23.216Z,101270.87
2018-08-04T03:05:51.328Z,101268.53
2018-08-04T03:08:18.464Z,101269.53
2018-08-04T03:10:45.596Z,101267.66
2018-08-04T03:13:13.219Z,101271.72
2018-08-04T03:15:40.400Z,101275.65
2018-08-04T03:18:07.584Z,101267.86
2018-08-04T03:20:34.693Z,101274.13
2018-08-04T03:23:02.000Z,101275.13
2018-08-04T03:25:29.743Z,101281.44
2018-08-04T03:27:57.249Z,101278.44
2018-08-04T03:30:25.232Z,101280.91
2018-08-04T03:32:52.960Z,101285.95
2018-08-04T03:35:20.848Z,101279.89
2018-08-04T03:37:48.518Z,101274.33
2018-08-04T03:40:15.719Z,101279.73
2018-08-04T03:42:42.896Z,101279.80
2018-08-04T03:45:10.075Z,101279.33
2018-08-04T03:47:37.226Z,101280.00
2018-08-04T03:50:04.980Z,101277.34
2018-08-04T03:52:32.174Z,101280.58
2018-08-04T03:54:59.557Z,101279.88
2018-08-04T03:57:26.956Z,101278.94
2018-08-04T03:59:54.360Z,101279.30
2018-08-04T04:02:22.251Z,101280.17
2018-08-04T04:04:50.126Z,101281.03
2018-08-04T04:07:17.522Z,101286.83
2018-08-04T04:09:44.670Z,101288.97
2018-08-04T04:12:11.864Z,101280.97
2018-08-04T04:14:39.009Z,101282.38
2018-08-04T04:17:06.166Z,101283.70
2018-08-04T04:19:33.391Z,101284.67
2018-08-04T04:22:00.963Z,101278.60
2018-08-04T04:24:28.456Z,101284.20
2018-08-04T04:26:55.708Z,101283.82
2018-08-04T04:29:25.106Z,101283.22
2018-08-04T04:31:52.796Z,101286.91
2018-08-04T04:34:19.999Z,101288.97
2018-08-04T04:36:47.164Z,101289.73
2018-08-04T04:39:14.251Z,101287.16
2018-08-04T04:41:41.484Z,101291.88
2018-08-04T04:44:08.856Z,101288.14
2018-08-04T04:46:37.140Z,101290.48
2018-08-04T04:49:05.259Z,101287.50
2018-08-04T04:51:32.932Z,101296.31
2018-08-04T04:54:00.590Z,101288.70
2018-08-04T04:56:28.339Z,101279.72
2018-08-04T04:58:55.940Z,101285.45
2018-08-04T05:01:24.302Z,101278.69
2018-08-04T05:03:51.726Z,101282.28
2018-08-04T05:06:18.908Z,101283.73
2018-08-04T05:08:46.064Z,101278.30
2018-08-04T05:11:13.245Z,101278.20
2018-08-04T05:13:40.529Z,101278.02
2018-08-04T05:16:07.676Z,101277.59
2018-08-04T05:18:35.029Z,101286.59
2018-08-04T05:21:02.719Z,101287.34
2018-08-04T05:23:30.240Z,101287.13
2018-08-04T05:25:57.859Z,101284.41
2018-08-04T05:28:25.548Z,101297.27
2018-08-04T05:30:53.023Z,101285.28
2018-08-04T05:33:20.380Z,101288.59
2018-08-04T05:35:47.711Z,101297.09
2018-08-04T05:38:14.831Z,101296.79
2018-08-04T05:40:42.047Z,101295.08
2018-08-04T05:43:09.300Z,101290.90
2018-08-04T05:45:36.444Z,101291.88
2018-08-04T05:48:04.105Z,101286.83
2018-08-04T05:50:31.923Z,101291.05
2018-08-04T05:52:59.443Z,101290.38
2018-08-04T05:55:27.087Z,101287.28
2018-08-04T05:57:56.004Z,101288.80
2018-08-04T06:00:24.807Z,101287.92
2018-08-04T06:02:52.739Z,101288.76
2018-08-04T06:05:19.978Z,101281.55
2018-08-04T06:07:47.120Z,101281.13
2018-08-04T06:10:14.298Z,101285.84
2018-08-04T06:12:41.482Z,101284.02
2018-08-04T06:15:08.606Z,101283.78
2018-08-04T06:17:35.771Z,101284.64
2018-08-04T06:20:03.435Z,101283.09
2018-08-04T06:22:31.070Z,101281.69
2018-08-04T06:24:58.646Z,101281.81
2018-08-04T06:27:26.841Z,101282.72
2018-08-04T06:29:54.621Z,101279.66
2018-08-04T06:32:21.766Z,101276.60
2018-08-04T06:34:49.044Z,101274.00
2018-08-04T06:37:16.515Z,101279.51
2018-08-04T06:39:44.016Z,101268.27
2018-08-04T06:42:11.519Z,101270.30
2018-08-04T06:44:39.049Z,101271.27
2018-08-04T06:47:07.111Z,101270.64
2018-08-04T06:49:35.188Z,101271.44
2018-08-04T06:52:02.754Z,101267.66
2018-08-04T06:54:30.224Z,101263.55
2018-08-04T06:56:57.561Z,101263.23
2018-08-04T06:59:24.872Z,101263.48
2018-08-04T07:01:52.065Z,101259.46
2018-08-04T07:06:53.071Z,101263.28
2018-08-04T07:09:20.277Z,101260.67
2018-08-04T07:11:47.538Z,101253.56
2018-08-04T07:14:15.061Z,101257.57
2018-08-04T07:16:42.492Z,101257.67
2018-08-04T07:19:10.047Z,101258.98
2018-08-04T07:21:38.358Z,101259.45
2018-08-04T07:24:06.622Z,101258.43
2018-08-04T07:26:34.664Z,101260.72
2018-08-04T07:29:02.233Z,101252.52
2018-08-04T07:31:30.606Z,101254.53
2018-08-04T07:33:58.295Z,101244.14
2018-08-04T07:36:26.430Z,101243.83
2018-08-04T07:38:58.791Z,101243.70
2018-08-04T07:41:26.925Z,101246.13
2018-08-04T07:43:54.915Z,101250.16
2018-08-04T07:46:25.385Z,101248.14
2018-08-04T07:48:52.729Z,101249.95
2018-08-04T07:51:26.623Z,101243.14
2018-08-04T07:53:54.634Z,101253.41
2018-08-04T07:56:22.106Z,101254.63
2018-08-04T07:58:49.215Z,101242.74
2018-08-04T08:01:16.472Z,101236.53
2018-08-04T08:03:43.615Z,101240.69
2018-08-04T08:06:10.733Z,101229.36
2018-08-04T08:08:38.087Z,101244.59
2018-08-04T08:11:05.798Z,101236.73
2018-08-04T08:13:33.575Z,101247.49
2018-08-04T08:16:01.258Z,101246.17
2018-08-04T08:18:29.328Z,101247.79
2018-08-04T08:20:57.422Z,101241.09
2018-08-04T08:23:26.460Z,101238.58
2018-08-04T08:26:05.920Z,101238.53
2018-08-04T08:28:33.592Z,101239.20
2018-08-04T08:31:01.240Z,101232.98
2018-08-04T08:33:29.521Z,101237.39
2018-08-04T08:35:57.891Z,101228.17
2018-08-04T08:38:26.170Z,101220.59
2018-08-04T08:40:54.323Z,101225.23
2018-08-04T08:43:21.477Z,101223.02
2018-08-04T08:45:48.785Z,101219.23
2018-08-04T08:48:16.052Z,101218.80
2018-08-04T08:50:43.209Z,101220.39
2018-08-04T08:53:10.455Z,101222.93
2018-08-04T08:55:37.719Z,101219.88
2018-08-04T08:58:05.780Z,101223.81
2018-08-04T09:00:33.423Z,101220.39
2018-08-04T09:03:01.361Z,101222.69
2018-08-04T09:05:29.336Z,101223.55
2018-08-04T09:07:57.747Z,101214.22
2018-08-04T09:10:26.270Z,101213.88
2018-08-04T09:12:56.169Z,101216.63
2018-08-04T09:15:24.068Z,101207.44
2018-08-04T09:17:51.886Z,101209.16
2018-08-04T09:20:19.031Z,101207.42
2018-08-04T09:22:51.871Z,101211.86
2018-08-04T09:25:19.166Z,101205.34
2018-08-04T09:27:46.852Z,101203.20
2018-08-04T09:30:14.829Z,101209.38
2018-08-04T09:32:43.457Z,101205.04
2018-08-04T09:35:12.464Z,101204.00
2018-08-04T09:37:39.725Z,101207.33
2018-08-04T09:40:09.564Z,101206.87
2018-08-04T09:42:36.973Z,101207.94
2018-08-04T09:45:06.284Z,101206.70
2018-08-04T09:47:34.916Z,101199.34
2018-08-04T09:50:02.629Z,101204.30
2018-08-04T09:52:31.046Z,101204.53
2018-08-04T09:54:59.216Z,101203.47
2018-08-04T09:57:27.827Z,101197.16
2018-08-04T09:59:57.266Z,101203.55
2018-08-04T10:02:26.747Z,101193.77
2018-08-04T10:04:55.766Z,101191.89
2018-08-04T10:07:23.245Z,101193.44
2018-08-04T10:09:51.074Z,101193.56
2018-08-04T10:12:18.264Z,101191.23
2018-08-04T10:14:45.688Z,101188.42
2018-08-04T10:17:13.004Z,101182.66
2018-08-04T10:19:40.940Z,101180.07
2018-08-04T10:22:08.271Z,101170.89
2018-08-04T10:24:41.279Z,101174.44
2018-08-04T10:27:08.677Z,101171.27
2018-08-04T10:29:36.700Z,101172.03
2018-08-04T10:32:04.509Z,101173.69
2018-08-04T10:34:32.262Z,101178.10
2018-08-04T10:36:59.994Z,101173.41
2018-08-04T10:39:28.282Z,101176.16
2018-08-04T10:41:57.480Z,101170.04
2018-08-04T10:44:25.978Z,101172.17
2018-08-04T10:46:54.391Z,101167.30
2018-08-04T10:49:21.830Z,101169.00
2018-08-04T10:51:49.128Z,101170.42
2018-08-04T10:54:16.648Z,101160.28
2018-08-04T10:56:43.835Z,101160.95
2018-08-04T10:59:11.020Z,101156.47
2018-08-04T11:01:38.344Z,101152.77
2018-08-04T11:04:06.220Z,101153.52
2018-08-04T11:06:33.861Z,101152.30
2018-08-04T11:09:02.172Z,101157.41
2018-08-04T11:11:29.896Z,101154.39
2018-08-04T11:13:58.179Z,101158.78
2018-08-04T11:16:26.060Z,101155.33
2018-08-04T11:18:55.571Z,101152.75
2018-08-04T11:21:22.900Z,101145.89
2018-08-04T11:23:50.061Z,101146.52
2018-08-04T11:26:17.248Z,101144.09
2018-08-04T11:31:47.983Z,101140.45
2018-08-04T11:34:15.584Z,101138.82
2018-08-04T11:36:42.708Z,101141.16
2018-08-04T11:39:12.239Z,101140.34
2018-08-04T11:41:39.424Z,101136.94
2018-08-04T11:44:06.863Z,101137.86
2018-08-04T11:46:34.020Z,101138.67
2018-08-04T11:49:01.180Z,101135.72
2018-08-04T11:51:28.362Z,101131.71
2018-08-04T11:53:55.500Z,101135.76
2018-08-04T11:56:22.851Z,101131.32
2018-08-04T11:58:50.009Z,101129.19
2018-08-04T12:01:17.175Z,101130.55
2018-08-04T12:03:44.344Z,101130.31
2018-08-04T12:06:11.489Z,101133.94
2018-08-04T12:08:38.792Z,101123.72
2018-08-04T12:11:06.162Z,101120.06
2018-08-04T12:13:33.271Z,101128.20
2018-08-04T12:16:00.417Z,101124.84
2018-08-04T12:18:27.514Z,101121.16
2018-08-04T12:20:54.798Z,101115.09
2018-08-04T12:23:21.942Z,101117.38
2018-08-04T12:25:49.050Z,101114.63
2018-08-04T12:28:16.267Z,101106.49
2018-08-04T12:30:43.497Z,101104.17
2018-08-04T12:33:10.773Z,101099.77
2018-08-04T12:35:37.904Z,101096.48
2018-08-04T12:38:05.039Z,101091.34
2018-08-04T12:40:32.232Z,101092.93
2018-08-04T12:42:59.368Z,101089.31
2018-08-04T12:45:26.694Z,101083.99
2018-08-04T12:47:54.145Z,101087.44
2018-08-04T12:50:21.329Z,101092.91
2018-08-04T12:52:48.712Z,101087.16
2018-08-04T12:55:16.056Z,101092.05
2018-08-04T12:57:43.302Z,101086.48
2018-08-04T13:00:10.476Z,101083.16
2018-08-04T13:02:37.618Z,101084.72
2018-08-04T13:05:05.278Z,101082.83
2018-08-04T13:07:32.589Z,101079.06
2018-08-04T13:09:59.925Z,101076.83
2018-08-04T13:12:27.144Z,101067.34
2018-08-04T13:14:54.293Z,101065.53
2018-08-04T13:17:21.442Z,101063.64
2018-08-04T13:19:48.549Z,101059.98
2018-08-04T13:22:15.850Z,101061.41
2018-08-04T13:24:43.124Z,101061.89
2018-08-04T13:27:10.342Z,101061.33
2018-08-04T13:29:37.713Z,101064.91
2018-08-04T13:32:04.874Z,101060.45
2018-08-04T13:34:32.202Z,101054.52
2018-08-04T13:37:02.666Z,101054.84
2018-08-04T13:39:33.819Z,101056.03
2018-08-04T13:42:01.024Z,101057.17
2018-08-04T13:44:28.172Z,101052.78
2018-08-04T13:46:55.434Z,101047.41
2018-08-04T13:49:22.531Z,101052.20
2018-08-04T13:51:50.545Z,101044.77
2018-08-04T13:54:17.657Z,101041.87
2018-08-04T13:56:44.790Z,101039.20
2018-08-04T13:59:12.359Z,101039.19
2018-08-04T14:01:39.507Z,101043.30
2018-08-04T14:04:06.639Z,101053.87
2018-08-04T14:06:33.867Z,101045.88
2018-08-04T14:09:01.140Z,101044.95
2018-08-04T14:11:28.388Z,101039.35
2018-08-04T14:13:55.854Z,101044.39
2018-08-04T14:16:22.968Z,101043.42
2018-08-04T14:18:50.110Z,101043.36
2018-08-04T14:21:17.288Z,101039.77
2018-08-04T14:23:44.517Z,101030.74
2018-08-04T14:26:11.646Z,101026.52
2018-08-04T14:28:38.855Z,101023.58
2018-08-04T14:31:05.964Z,101021.54
2018-08-04T14:33:33.149Z,101025.20
2018-08-04T14:36:00.461Z,101018.70
2018-08-04T14:38:27.598Z,101018.54
2018-08-04T14:40:54.752Z,101019.90
2018-08-04T14:43:21.945Z,101009.53
2018-08-04T14:45:49.064Z,101008.69
2018-08-04T14:48:16.316Z,101014.43
2018-08-04T14:50:44.576Z,101011.06
2018-08-04T14:53:11.703Z,101000.81
2018-08-04T14:55:38.832Z,101008.80
2018-08-04T14:58:07.246Z,101005.10
2018-08-04T15:00:34.800Z,101004.13
2018-08-04T15:03:01.909Z,101005.80
2018-08-04T15:05:29.159Z,100987.54
2018-08-04T15:07:56.266Z,100993.84
2018-08-04T15:10:23.597Z,100986.75
2018-08-04T15:12:50.911Z,100985.00
2018-08-04T15:15:18.046Z,100988.09
2018-08-04T15:17:45.308Z,100974.56
2018-08-04T15:20:13.373Z,100979.33
2018-08-04T15:22:40.632Z,100972.47
2018-08-04T15:25:08.116Z,100975.98
2018-08-04T15:27:35.755Z,100972.64
2018-08-04T15:30:03.054Z,100979.70
2018-08-04T15:32:30.231Z,100977.11
2018-08-04T15:34:57.879Z,100981.08
2018-08-04T15:37:25.193Z,100980.91
2018-08-04T15:39:52.339Z,100982.44
2018-08-04T15:42:19.520Z,100981.27
2018-08-04T15:44:46.851Z,100975.63
2018-08-04T15:47:13.975Z,100979.39
2018-08-04T15:49:41.964Z,100974.02
2018-08-04T15:52:09.098Z,100972.66
2018-08-04T15:54:36.574Z,100969.59
2018-08-04T15:57:03.712Z,100961.64
2018-08-04T15:59:30.859Z,100967.23
2018-08-04T16:01:58.132Z,100969.31
2018-08-04T16:04:25.286Z,100971.92
2018-08-04T16:06:52.419Z,100967.84
2018-08-04T16:09:19.523Z,100974.63
2018-08-04T16:11:46.677Z,100976.14
2018-08-04T16:14:13.912Z,100969.22
2018-08-04T16:16:43.164Z,100971.27
2018-08-04T16:19:10.622Z,100973.72
2018-08-04T16:21:37.770Z,100974.73
2018-08-04T16:24:04.985Z,100976.19
2018-08-04T16:26:32.347Z,100971.13
2018-08-04T16:28:59.485Z,100980.97
2018-08-04T16:31:26.611Z,100982.86
2018-08-04T16:33:54.249Z,100983.66
2018-08-04T16:36:22.541Z,100985.58
2018-08-04T16:38:50.059Z,100984.60
2018-08-04T16:41:17.213Z,100984.50
2018-08-04T16:43:44.326Z,100998.00
2018-08-04T16:46:11.484Z,100988.80
2018-08-04T16:48:38.611Z,100992.38
2018-08-04T16:51:05.864Z,100997.67
2018-08-04T16:53:32.982Z,100997.89
2018-08-04T16:56:00.514Z,100998.73
2018-08-04T16:58:27.682Z,101005.02
2018-08-04T17:00:54.829Z,101006.73
2018-08-04T17:03:22.157Z,101005.20
2018-08-04T17:05:49.404Z,101009.42
2018-08-04T17:08:16.521Z,101012.29
2018-08-04T17:10:43.723Z,101019.91
2018-08-04T17:13:10.842Z,101017.31
2018-08-04T17:15:38.124Z,101018.11
2018-08-04T17:18:05.354Z,101021.12
2018-08-04T17:20:32.560Z,101025.52
2018-08-04T17:22:59.722Z,101025.61
2018-08-04T17:25:26.921Z,101027.78
2018-08-04T17:27:54.914Z,101031.51
2018-08-04T17:30:22.056Z,101028.79
2018-08-04T17:32:49.248Z,101030.07
2018-08-04T17:35:16.387Z,101034.14
2018-08-04T17:37:43.661Z,101026.55
2018-08-04T17:40:10.965Z,101033.46
2018-08-04T17:42:38.156Z,101037.27
2018-08-04T17:45:05.620Z,101034.20
2018-08-04T17:47:32.784Z,101043.36
2018-08-04T17:50:00.484Z,101044.66
2018-08-04T17:52:27.787Z,101039.27
2018-08-04T17:54:55.004Z,101038.07
2018-08-04T17:57:22.252Z,101040.34
2018-08-04T17:59:49.346Z,101036.41
2018-08-04T18:02:16.513Z,101042.91
2018-08-04T18:04:43.791Z,101040.97
2018-08-04T18:07:10.920Z,101042.98
2018-08-04T18:09:38.120Z,101041.37
2018-08-04T18:12:05.267Z,101043.13
2018-08-04T18:14:32.405Z,101041.83
2018-08-04T18:16:59.717Z,101046.61
2018-08-04T18:19:27.040Z,101042.20
2018-08-04T18:21:54.222Z,101043.75
2018-08-04T18:24:21.427Z,101049.93
2018-08-04T18:26:48.536Z,101047.44
2018-08-04T18:29:15.791Z,101046.43
2018-08-04T18:31:43.059Z,101044.38
2018-08-04T18:34:10.165Z,101046.75
2018-08-04T18:36:37.361Z,101049.32
2018-08-04T18:39:06.625Z,101049.86
2018-08-04T18:41:33.860Z,101055.91
2018-08-04T18:44:01.019Z,101061.81
2018-08-04T18:46:28.178Z,101067.95
2018-08-04T18:48:55.342Z,101072.86
2018-08-04T18:51:22.488Z,101079.11
2018-08-04T18:53:49.827Z,101075.47
2018-08-04T18:56:16.956Z,101081.05
2018-08-04T18:58:44.066Z,101085.46
2018-08-04T19:01:11.598Z,101085.33
2018-08-04T19:03:38.763Z,101086.34
2018-08-04T19:06:06.089Z,101086.92
2018-08-04T19:08:33.367Z,101093.19
2018-08-04T19:11:00.487Z,101093.92
2018-08-04T19:13:27.687Z,101093.32
2018-08-04T19:15:54.943Z,101095.71
2018-08-04T19:18:22.167Z,101086.50
2018-08-04T19:20:49.376Z,101094.51
2018-08-04T19:23:16.647Z,101099.11
2018-08-04T19:25:43.783Z,101096.82
2018-08-04T19:28:10.989Z,101103.64
2018-08-04T19:30:43.915Z,101098.66
2018-08-04T19:33:11.072Z,101104.09
2018-08-04T19:35:38.234Z,101100.16
2018-08-04T19:38:05.431Z,101110.88
2018-08-04T19:40:32.606Z,101104.16
2018-08-04T19:42:59.884Z,101103.18
2018-08-04T19:45:27.033Z,101103.33
2018-08-04T19:47:54.238Z,101098.64
2018-08-04T19:50:21.633Z,101102.34
2018-08-04T19:52:48.880Z,101103.22
2018-08-04T19:55:17.253Z,101103.20
2018-08-04T19:57:44.386Z,101108.95
2018-08-04T20:00:11.609Z,101109.20
2018-08-04T20:02:39.018Z,101115.91
2018-08-04T20:05:06.176Z,101120.06
2018-08-04T20:07:34.331Z,101125.24
2018-08-04T20:10:01.810Z,101126.10
2018-08-04T20:12:28.993Z,101131.11
2018-08-04T20:14:56.163Z,101143.48
2018-08-04T20:17:23.808Z,101146.55
2018-08-04T20:19:51.725Z,101146.81
2018-08-04T20:22:19.742Z,101144.70
2018-08-04T20:24:46.922Z,101140.55
2018-08-04T20:27:14.244Z,101140.06
2018-08-04T20:29:41.464Z,101146.91
2018-08-04T20:32:09.020Z,101147.30
2018-08-04T20:34:36.671Z,101149.50
2018-08-04T20:37:04.062Z,101150.62
2018-08-04T20:39:31.345Z,101151.25
2018-08-04T20:41:58.621Z,101153.44
2018-08-04T20:44:26.073Z,101155.52
2018-08-04T20:46:54.634Z,101156.73
2018-08-04T20:49:25.673Z,101148.64
2018-08-04T20:51:52.826Z,101151.46
2018-08-04T20:54:20.025Z,101143.47
2018-08-04T20:56:47.372Z,101143.97
2018-08-04T20:59:14.866Z,101147.15
2018-08-04T21:01:49.845Z,101147.15
2018-08-04T21:04:17.165Z,101153.48
2018-08-04T21:06:44.363Z,101153.00
2018-08-04T21:09:12.235Z,101145.25
2018-08-04T21:11:45.210Z,101149.70
2018-08-04T21:14:12.424Z,101154.70
2018-08-04T21:16:40.126Z,101154.81
2018-08-04T21:19:07.271Z,101159.94
2018-08-04T21:21:34.611Z,101157.61
2018-08-04T21:24:01.753Z,101157.72
2018-08-04T21:26:28.914Z,101165.78
2018-08-04T21:28:56.110Z,101168.15
2018-08-04T21:31:23.260Z,101168.43
2018-08-04T21:33:50.509Z,101175.63
2018-08-04T21:36:17.698Z,101169.48
2018-08-04T21:38:44.839Z,101164.73
2018-08-04T21:41:11.932Z,101170.27
2018-08-04T21:43:39.108Z,101177.83
2018-08-04T21:46:06.392Z,101176.92
2018-08-04T21:48:33.665Z,101179.10
2018-08-04T21:51:00.876Z,101171.67
2018-08-04T21:53:28.010Z,101169.30
2018-08-04T21:55:55.160Z,101168.90
2018-08-04T21:58:22.950Z,101169.56
2018-08-04T22:00:55.875Z,101172.80
2018-08-04T22:03:23.048Z,101175.50
2018-08-04T22:05:50.201Z,101176.91
2018-08-04T22:08:28.966Z,101181.86
2018-08-04T22:10:56.114Z,101181.92
2018-08-04T22:13:23.261Z,101188.63
2018-08-04T22:15:50.416Z,101186.97
2018-08-04T22:18:17.536Z,101185.48
2018-08-04T22:20:45.235Z,101186.74
2018-08-04T22:23:12.455Z,101188.72
2018-08-04T22:25:39.621Z,101196.34
2018-08-04T22:28:06.771Z,101203.37
2018-08-04T22:30:33.948Z,101196.10
2018-08-04T22:33:01.245Z,101197.55
2018-08-04T22:35:28.408Z,101197.30
2018-08-04T22:37:55.614Z,101193.84
2018-08-04T22:40:22.740Z,101191.16
2018-08-04T22:42:49.867Z,101190.83
2018-08-04T22:46:00.325Z,101191.50
2018-08-04T22:48:27.518Z,101191.02
2018-08-04T22:50:54.760Z,101199.13
2018-08-04T22:53:21.973Z,101197.78
2018-08-04T22:55:49.203Z,101204.62
2018-08-04T22:58:16.411Z,101206.45
2018-08-04T23:00:44.327Z,101203.77
2018-08-04T23:03:11.975Z,101208.37
2018-08-04T23:05:39.150Z,101205.50
2018-08-04T23:08:06.728Z,101207.31
2018-08-04T23:10:34.260Z,101214.73
2018-08-04T23:13:01.383Z,101207.65
2018-08-04T23:15:29.031Z,101206.30
2018-08-04T23:17:56.244Z,101210.09
2018-08-04T23:20:23.482Z,101206.48
2018-08-04T23:22:51.023Z,101199.20
2018-08-04T23:25:18.464Z,101203.90
2018-08-04T23:27:45.613Z,101205.05
2018-08-04T23:30:12.896Z,101196.56
2018-08-04T23:32:40.124Z,101192.44
2018-08-04T23:35:07.326Z,101189.88
2018-08-04T23:37:34.537Z,101194.48
2018-08-04T23:40:01.658Z,101192.84
2018-08-04T23:42:28.789Z,101189.02
2018-08-04T23:44:56.053Z,101184.84
2018-08-04T23:47:23.254Z,101183.39
2018-08-04T23:49:50.403Z,101192.62
2018-08-04T23:52:17.582Z,101191.69
2018-08-04T23:54:44.701Z,101198.67
2018-08-04T23:57:11.930Z,101209.09
2018-08-04T23:59:39.140Z,101213.05
